Time;durP1;ratioP1;P1;durP2;ratioP2;P2;SDS_P1;SDS_P2;PMS_P1;PMS_P2;Temp;Humidity;BMP_temperature;BMP_pressure;BME280_temperature;BME280_humidity;BME280_pressure;Samples;Min_cycle;Max_cycle;Signal;HPM_P1;HPM_P2
2022/01/11 00:01:21;;;;;;;24.60;17.65;;;10.20;99.90;;;;;;5031142;28;20064;-85
2022/01/11 00:03:47;;;;;;;26.23;18.83;;;10.20;99.90;;;;;;5031137;28;20013;-85
2022/01/11 00:08:53;;;;;;;27.52;17.98;;;10.20;99.90;;;;;;5030600;28;20048;-85
2022/01/11 00:11:19;;;;;;;22.45;18.10;;;10.10;99.90;;;;;;5030639;28;20029;-85
2022/01/11 00:13:44;;;;;;;23.75;16.73;;;10.10;99.90;;;;;;5030672;28;20151;-85
2022/01/11 00:16:13;;;;;;;20.50;14.20;;;10.10;99.90;;;;;;5029536;28;20021;-85
2022/01/11 00:18:39;;;;;;;20.45;13.93;;;10.10;99.90;;;;;;5029156;28;20040;-85
2022/01/11 00:21:04;;;;;;;22.67;12.75;;;10.00;99.90;;;;;;5030381;28;20397;-85
2022/01/11 00:25:57;;;;;;;20.05;13.20;;;10.00;99.90;;;;;;5030744;28;20604;-85
2022/01/11 00:28:25;;;;;;;18.38;11.13;;;10.00;99.90;;;;;;5030626;28;20052;-85
2022/01/11 00:30:52;;;;;;;21.48;11.70;;;10.00;99.90;;;;;;5030540;28;20418;-85
2022/01/11 00:33:24;;;;;;;21.05;11.32;;;10.00;99.90;;;;;;5028848;28;20045;-84
2022/01/11 00:36:01;;;;;;;19.95;10.73;;;10.00;99.90;;;;;;5029992;28;20040;-85
2022/01/11 00:38:29;;;;;;;19.65;11.95;;;10.00;99.90;;;;;;5030440;28;20024;-85
2022/01/11 00:40:58;;;;;;;20.15;11.70;;;10.00;99.90;;;;;;5030173;28;20014;-85
2022/01/11 00:43:25;;;;;;;21.00;11.68;;;9.90;99.90;;;;;;5030184;28;20265;-85
2022/01/11 00:45:52;;;;;;;20.52;10.88;;;9.90;99.90;;;;;;5030310;28;20040;-85
2022/01/11 00:48:18;;;;;;;19.42;11.02;;;9.90;99.90;;;;;;5028620;28;20120;-85
2022/01/11 00:50:44;;;;;;;21.35;11.18;;;9.90;99.90;;;;;;5029954;28;20554;-85
2022/01/11 00:53:11;;;;;;;20.25;11.35;;;9.90;99.90;;;;;;5029866;28;20529;-85
2022/01/11 00:55:38;;;;;;;21.08;11.73;;;9.90;99.90;;;;;;5030035;28;20395;-85
2022/01/11 00:58:04;;;;;;;21.83;11.55;;;9.90;99.90;;;;;;5028803;28;20022;-84
2022/01/11 01:00:35;;;;;;;20.77;10.63;;;9.90;99.90;;;;;;5029968;28;20056;-85
2022/01/11 01:03:01;;;;;;;19.33;12.05;;;9.90;99.90;;;;;;5028527;28;20064;-85
2022/01/11 01:05:28;;;;;;;19.20;10.82;;;9.90;99.90;;;;;;5028542;28;20038;-85
2022/01/11 01:07:54;;;;;;;20.38;10.82;;;9.90;99.90;;;;;;5028181;28;20021;-85
2022/01/11 01:10:26;;;;;;;20.73;11.57;;;9.90;99.90;;;;;;5028394;28;20433;-85
2022/01/11 01:12:57;;;;;;;19.60;10.80;;;9.90;99.90;;;;;;5029598;28;20446;-85
2022/01/11 01:15:25;;;;;;;18.33;9.95;;;9.90;99.90;;;;;;5029833;28;20528;-84
2022/01/11 01:17:53;;;;;;;17.27;10.32;;;9.90;99.90;;;;;;5029684;28;20577;-85
2022/01/11 01:20:19;;;;;;;20.73;10.00;;;9.90;99.90;;;;;;5029599;28;20056;-85
2022/01/11 01:22:46;;;;;;;19.90;9.70;;;9.90;99.90;;;;;;5029378;28;20394;-85
2022/01/11 01:25:12;;;;;;;17.33;10.25;;;9.90;99.90;;;;;;5029750;28;20474;-85
2022/01/11 01:27:38;;;;;;;18.50;9.95;;;9.90;99.90;;;;;;5029728;28;20026;-85
2022/01/11 01:30:06;;;;;;;19.13;9.70;;;9.90;99.90;;;;;;5029811;28;20091;-85
2022/01/11 01:32:32;;;;;;;19.13;10.18;;;9.80;99.90;;;;;;5033321;28;20640;-85
2022/01/11 01:35:03;;;;;;;18.83;9.63;;;9.80;99.90;;;;;;5033462;28;20026;-84
2022/01/11 01:37:29;;;;;;;14.98;9.82;;;9.80;99.90;;;;;;5032083;28;20562;-85
2022/01/11 01:39:55;;;;;;;21.38;10.32;;;9.70;99.90;;;;;;5033681;28;20026;-85
2022/01/11 01:42:29;;;;;;;27.58;10.88;;;9.70;99.90;;;;;;5033701;28;20037;-85
2022/01/11 01:44:55;;;;;;;14.35;9.88;;;9.70;99.90;;;;;;5033699;28;20052;-85
2022/01/11 01:47:21;;;;;;;15.70;9.45;;;9.60;99.90;;;;;;5033475;28;20115;-85
2022/01/11 01:49:47;;;;;;;16.13;9.35;;;9.60;99.90;;;;;;5033500;28;20072;-84
2022/01/11 01:52:14;;;;;;;15.95;9.52;;;9.50;99.90;;;;;;5031481;28;20124;-85
2022/01/11 01:54:41;;;;;;;19.45;10.40;;;9.50;99.90;;;;;;5033283;28;20036;-85
2022/01/11 01:57:08;;;;;;;15.45;10.20;;;9.50;99.90;;;;;;5033314;28;20588;-85
2022/01/11 01:59:34;;;;;;;17.00;9.70;;;9.40;99.90;;;;;;5033417;28;20097;-85
2022/01/11 02:02:00;;;;;;;16.23;10.35;;;9.40;99.90;;;;;;5033251;28;20096;-85
2022/01/11 02:04:26;;;;;;;19.42;10.45;;;9.30;99.90;;;;;;5031782;28;20036;-85
2022/01/11 02:06:52;;;;;;;25.02;9.27;;;9.30;99.90;;;;;;5032983;28;20021;-85
2022/01/11 02:09:18;;;;;;;16.30;9.90;;;9.30;99.90;;;;;;5031857;28;20025;-84
2022/01/11 02:11:46;;;;;;;17.60;10.23;;;9.20;99.90;;;;;;5032602;28;20048;-85
2022/01/11 02:14:12;;;;;;;20.58;10.75;;;9.20;99.90;;;;;;5033019;28;20025;-85
2022/01/11 02:16:38;;;;;;;21.25;10.98;;;9.10;99.90;;;;;;5033172;28;20121;-84
2022/01/11 02:19:05;;;;;;;20.67;10.88;;;9.00;99.90;;;;;;5031618;28;20030;-84
2022/01/11 02:21:31;;;;;;;21.00;10.85;;;9.00;99.90;;;;;;5026612;28;20127;-84
2022/01/11 02:23:58;;;;;;;19.98;10.85;;;9.00;99.90;;;;;;5032756;28;20100;-84
2022/01/11 02:26:25;;;;;;;18.48;10.88;;;8.90;99.90;;;;;;5032811;28;20039;-84
2022/01/11 02:28:51;;;;;;;20.58;11.10;;;8.90;99.90;;;;;;5032744;28;20022;-86
2022/01/11 02:31:18;;;;;;;20.58;10.63;;;8.80;99.90;;;;;;5031133;28;20069;-84
2022/01/11 02:33:52;;;;;;;19.90;11.20;;;8.70;99.90;;;;;;5032409;28;20140;-85
2022/01/11 02:36:30;;;;;;;21.35;12.10;;;8.70;99.90;;;;;;5040980;28;20029;-85
2022/01/11 02:38:57;;;;;;;18.38;11.10;;;8.70;99.90;;;;;;5031375;28;20025;-84
2022/01/11 02:41:26;;;;;;;17.27;11.07;;;8.70;99.90;;;;;;5031167;28;20025;-85
2022/01/11 02:43:52;;;;;;;21.55;11.07;;;8.60;99.90;;;;;;5032630;28;20029;-85
2022/01/11 02:46:20;;;;;;;18.30;10.82;;;8.60;99.90;;;;;;5031276;28;20191;-85
2022/01/11 02:48:50;;;;;;;11.95;10.18;;;8.50;99.90;;;;;;5031065;28;20490;-85
2022/01/11 02:51:17;;;;;;;17.75;10.27;;;8.50;99.90;;;;;;5031904;28;20034;-86
2022/01/11 02:53:51;;;;;;;13.60;9.30;;;8.50;99.90;;;;;;5030753;28;20375;-86
2022/01/11 02:56:18;;;;;;;20.40;11.10;;;8.40;99.90;;;;;;5032084;28;20441;-85
2022/01/11 02:58:44;;;;;;;19.45;11.63;;;8.40;99.90;;;;;;5032051;28;20028;-85
2022/01/11 03:01:11;;;;;;;18.83;10.82;;;8.30;99.90;;;;;;5032402;28;20056;-85
2022/01/11 03:03:37;;;;;;;21.10;11.45;;;8.30;99.90;;;;;;5032192;28;20053;-85
2022/01/11 03:06:05;;;;;;;20.20;11.30;;;8.30;99.90;;;;;;5030408;28;20030;-85
2022/01/11 03:08:35;;;;;;;15.57;10.50;;;8.20;99.90;;;;;;5030627;28;20025;-85
2022/01/11 03:11:01;;;;;;;15.10;11.05;;;8.10;99.90;;;;;;5030491;28;20041;-84
2022/01/11 03:13:27;;;;;;;18.67;12.02;;;8.10;99.90;;;;;;5031941;28;20047;-84
2022/01/11 03:15:55;;;;;;;19.60;11.27;;;8.10;99.90;;;;;;5031717;28;20021;-84
2022/01/11 03:18:21;;;;;;;22.70;12.65;;;8.00;99.90;;;;;;5031587;28;20025;-85
2022/01/11 03:20:49;;;;;;;20.73;13.65;;;8.00;99.90;;;;;;5031401;28;20105;-84
2022/01/11 03:23:16;;;;;;;23.80;13.30;;;8.00;99.90;;;;;;5030377;28;20036;-84
2022/01/11 03:25:43;;;;;;;21.67;13.43;;;8.00;99.90;;;;;;5032015;28;20029;-84
2022/01/11 03:28:09;;;;;;;21.95;14.05;;;7.90;99.90;;;;;;5031688;28;20021;-84
2022/01/11 03:30:35;;;;;;;22.05;14.13;;;7.90;99.90;;;;;;5030318;28;20036;-85
2022/01/11 03:33:02;;;;;;;27.48;15.10;;;7.80;99.90;;;;;;5030052;28;20054;-84
2022/01/11 03:35:29;;;;;;;25.00;16.48;;;7.80;99.90;;;;;;5030939;28;20025;-85
2022/01/11 03:37:55;;;;;;;25.85;15.57;;;7.80;99.90;;;;;;5030025;28;20060;-85
2022/01/11 03:40:23;;;;;;;25.27;16.20;;;7.80;99.90;;;;;;5029862;28;20063;-84
2022/01/11 03:42:50;;;;;;;30.90;15.82;;;7.80;99.90;;;;;;5031465;28;20017;-84
2022/01/11 03:45:17;;;;;;;21.30;14.82;;;7.70;99.90;;;;;;5031375;28;20029;-84
2022/01/11 03:47:43;;;;;;;26.73;15.60;;;7.70;99.90;;;;;;5031398;28;20025;-84
2022/01/11 03:50:11;;;;;;;23.98;14.90;;;7.70;99.90;;;;;;5031158;28;20021;-84
2022/01/11 03:52:39;;;;;;;23.65;14.55;;;7.70;99.90;;;;;;5030669;28;20592;-84
2022/01/11 03:55:11;;;;;;;23.02;14.88;;;7.70;99.90;;;;;;5030609;28;20021;-84
2022/01/11 03:57:38;;;;;;;22.98;14.57;;;7.70;99.90;;;;;;5031132;28;20072;-86
2022/01/11 04:00:10;;;;;;;24.20;13.80;;;7.60;99.90;;;;;;5030901;28;20026;-87
2022/01/11 04:02:35;;;;;;;22.13;13.18;;;7.60;99.90;;;;;;5030825;28;20115;-86
2022/01/11 04:05:02;;;;;;;26.05;14.45;;;7.60;99.90;;;;;;5030925;28;20489;-86
2022/01/11 04:07:29;;;;;;;19.38;13.15;;;7.50;99.90;;;;;;5030505;28;20024;-86
2022/01/11 04:09:56;;;;;;;23.17;14.07;;;7.60;99.90;;;;;;5029471;28;20026;-84
2022/01/11 04:12:22;;;;;;;24.00;14.38;;;7.50;99.90;;;;;;5030517;28;20549;-84
2022/01/11 04:14:48;;;;;;;25.63;14.52;;;7.60;99.90;;;;;;5030707;28;20053;-84
2022/01/11 04:17:14;;;;;;;20.50;13.73;;;7.60;99.90;;;;;;5030555;28;20060;-84
2022/01/11 04:19:40;;;;;;;31.63;14.60;;;7.50;99.90;;;;;;5030469;28;20100;-86
2022/01/11 04:22:06;;;;;;;23.00;14.38;;;7.50;99.90;;;;;;5030134;28;20541;-86
2022/01/11 04:24:32;;;;;;;23.70;14.20;;;7.50;99.90;;;;;;5030697;28;20099;-87
2022/01/11 04:26:58;;;;;;;25.35;13.63;;;7.50;99.90;;;;;;5029140;28;20161;-84
2022/01/11 04:29:24;;;;;;;25.35;14.93;;;7.40;99.90;;;;;;5030530;28;20030;-84
2022/01/11 04:31:50;;;;;;;28.70;14.10;;;7.40;99.90;;;;;;5030192;28;20033;-84
2022/01/11 04:34:16;;;;;;;20.85;13.75;;;7.40;99.90;;;;;;5030110;28;20514;-84
2022/01/11 04:36:42;;;;;;;20.35;13.20;;;7.40;99.90;;;;;;5030098;28;20033;-86
2022/01/11 04:39:11;;;;;;;19.88;12.63;;;7.40;99.90;;;;;;5030119;28;20359;-84
2022/01/11 04:41:37;;;;;;;21.20;13.10;;;7.40;99.90;;;;;;5030203;28;20029;-84
2022/01/11 04:44:04;;;;;;;20.02;13.15;;;7.30;99.90;;;;;;5030246;28;20490;-86
2022/01/11 04:46:30;;;;;;;22.95;13.25;;;7.30;99.90;;;;;;5030118;28;20048;-85
2022/01/11 04:48:56;;;;;;;22.65;13.05;;;7.30;99.90;;;;;;5030401;28;20040;-86
2022/01/11 04:51:24;;;;;;;17.38;11.48;;;7.30;99.90;;;;;;5028419;28;20038;-86
2022/01/11 04:53:50;;;;;;;21.73;12.75;;;7.30;99.90;;;;;;5030249;28;20025;-86
2022/01/11 04:56:16;;;;;;;21.50;12.43;;;7.30;99.90;;;;;;5030082;28;20544;-87
2022/01/11 04:58:42;;;;;;;17.90;11.15;;;7.20;99.90;;;;;;5029936;28;20033;-87
2022/01/11 05:01:08;;;;;;;19.85;12.13;;;7.20;99.90;;;;;;5028727;28;20128;-86
2022/01/11 05:03:34;;;;;;;21.33;12.07;;;7.20;99.90;;;;;;5029655;28;20025;-84
2022/01/11 05:06:01;;;;;;;16.33;11.93;;;7.20;99.90;;;;;;5028615;28;20117;-84
2022/01/11 05:08:26;;;;;;;18.52;11.65;;;7.10;99.90;;;;;;5030276;28;20060;-85
2022/01/11 05:10:52;;;;;;;17.67;12.02;;;7.10;99.90;;;;;;5029906;28;20049;-84
2022/01/11 05:13:20;;;;;;;17.88;11.32;;;7.20;99.90;;;;;;5022047;28;20064;-85
2022/01/11 05:15:46;;;;;;;20.35;11.70;;;7.10;99.90;;;;;;5029900;28;20379;-84
2022/01/11 05:18:12;;;;;;;18.60;12.18;;;7.20;99.90;;;;;;5029733;28;20031;-84
2022/01/11 05:20:39;;;;;;;21.63;12.60;;;7.20;99.90;;;;;;5029234;28;20099;-85
2022/01/11 05:23:05;;;;;;;22.17;12.80;;;7.20;99.90;;;;;;5028537;28;20064;-86
2022/01/11 05:25:31;;;;;;;29.35;13.18;;;7.20;99.90;;;;;;5029618;28;20030;-86
2022/01/11 05:27:59;;;;;;;19.50;12.95;;;7.20;99.90;;;;;;5028173;28;20033;-86
2022/01/11 05:30:25;;;;;;;25.58;12.27;;;7.20;99.90;;;;;;5029621;28;20027;-84
2022/01/11 05:32:51;;;;;;;24.95;12.25;;;7.30;99.90;;;;;;5029637;28;20046;-84
2022/01/11 05:35:18;;;;;;;27.95;13.55;;;7.20;99.90;;;;;;5029659;28;20018;-84
2022/01/11 05:37:44;;;;;;;28.23;13.13;;;7.30;99.90;;;;;;5028083;28;20025;-84
2022/01/11 05:40:11;;;;;;;25.05;13.32;;;7.30;99.90;;;;;;5029476;28;20482;-84
2022/01/11 05:42:37;;;;;;;22.50;12.98;;;7.20;99.90;;;;;;5027955;28;20022;-84
2022/01/11 05:45:05;;;;;;;23.65;13.02;;;7.20;99.90;;;;;;5029885;28;20030;-87
2022/01/11 05:47:31;;;;;;;25.35;11.90;;;7.20;99.90;;;;;;5029147;28;20056;-84
2022/01/11 05:49:56;;;;;;;20.45;11.20;;;7.30;99.90;;;;;;5029157;28;20061;-84
2022/01/11 05:52:22;;;;;;;29.92;12.15;;;7.30;99.90;;;;;;5029191;28;20565;-85
2022/01/11 05:54:47;;;;;;;18.35;11.48;;;7.20;99.90;;;;;;5029889;28;20028;-85
2022/01/11 05:57:13;;;;;;;21.67;10.90;;;7.20;99.90;;;;;;5027898;28;20033;-85
2022/01/11 05:59:39;;;;;;;22.42;11.18;;;7.30;99.90;;;;;;5029428;28;20031;-85
2022/01/11 06:02:05;;;;;;;21.00;11.95;;;7.30;99.90;;;;;;5027893;28;20390;-85
2022/01/11 06:04:30;;;;;;;19.67;10.93;;;7.30;99.90;;;;;;5029396;28;20104;-84
2022/01/11 06:06:56;;;;;;;19.30;11.07;;;7.30;99.90;;;;;;5027634;28;20079;-84
2022/01/11 06:09:26;;;;;;;22.98;10.95;;;7.30;99.90;;;;;;5028029;28;20544;-84
2022/01/11 06:11:53;;;;;;;19.52;10.68;;;7.20;99.90;;;;;;5029688;28;20030;-85
2022/01/11 06:14:19;;;;;;;16.52;10.77;;;7.20;99.90;;;;;;5029293;28;20053;-84
2022/01/11 06:16:44;;;;;;;20.13;10.65;;;7.10;99.90;;;;;;5028603;28;20057;-85
2022/01/11 06:19:10;;;;;;;22.77;11.45;;;7.10;99.90;;;;;;5032253;28;20037;-84
2022/01/11 06:21:36;;;;;;;19.75;10.93;;;7.00;99.90;;;;;;5030454;28;20021;-84
2022/01/11 06:24:02;;;;;;;17.80;9.63;;;7.00;99.90;;;;;;5032092;28;20021;-86
2022/01/11 06:26:28;;;;;;;20.27;10.50;;;7.00;99.90;;;;;;5031113;28;20067;-87
2022/01/11 06:28:56;;;;;;;19.40;10.43;;;6.90;99.90;;;;;;5032402;28;20025;-85
2022/01/11 06:31:23;;;;;;;20.70;9.65;;;6.90;99.90;;;;;;5032075;28;20382;-85
2022/01/11 06:33:49;;;;;;;19.35;10.27;;;6.90;99.90;;;;;;5031901;28;20697;-85
2022/01/11 06:36:14;;;;;;;18.45;9.90;;;6.90;99.90;;;;;;5031599;28;20489;-85
2022/01/11 06:38:42;;;;;;;22.30;10.13;;;6.80;99.90;;;;;;5052510;28;20028;-86
2022/01/11 06:41:09;;;;;;;15.95;9.57;;;6.80;99.90;;;;;;5032687;28;20509;-86
2022/01/11 06:43:35;;;;;;;19.67;10.52;;;6.80;99.90;;;;;;5032268;28;20026;-87
2022/01/11 06:46:01;;;;;;;14.52;9.82;;;6.80;99.90;;;;;;5034660;28;20037;-87
2022/01/11 06:48:27;;;;;;;23.38;10.80;;;6.80;99.90;;;;;;5035792;28;20029;-86
2022/01/11 06:50:53;;;;;;;20.98;10.15;;;6.70;99.90;;;;;;5033880;28;20225;-86
2022/01/11 06:53:19;;;;;;;21.58;11.05;;;6.70;99.90;;;;;;5033653;28;20091;-86
2022/01/11 06:55:44;;;;;;;21.45;10.63;;;6.70;99.90;;;;;;5032618;28;20379;-84
2022/01/11 06:58:10;;;;;;;23.17;11.70;;;6.70;99.90;;;;;;5033386;28;20215;-84
2022/01/11 07:00:37;;;;;;;20.00;11.85;;;6.80;99.90;;;;;;5034819;28;20024;-84
2022/01/11 07:03:02;;;;;;;24.05;12.13;;;6.70;99.90;;;;;;5030802;28;20025;-84
2022/01/11 07:05:28;;;;;;;25.35;10.98;;;6.70;99.90;;;;;;5031746;28;20026;-84
2022/01/11 07:07:54;;;;;;;23.08;10.38;;;6.70;99.90;;;;;;5032026;28;20029;-88
2022/01/11 07:10:19;;;;;;;19.83;11.48;;;6.60;99.90;;;;;;5032165;28;20097;-85
2022/01/11 07:12:46;;;;;;;22.38;11.60;;;6.60;99.90;;;;;;5031932;28;20037;-84
2022/01/11 07:15:12;;;;;;;21.30;11.43;;;6.60;99.90;;;;;;5030382;28;20045;-84
2022/01/11 07:17:38;;;;;;;22.45;12.48;;;6.50;99.90;;;;;;5030554;28;20401;-85
2022/01/11 07:20:05;;;;;;;24.60;14.65;;;6.50;99.90;;;;;;5030443;28;20029;-85
2022/01/11 07:22:31;;;;;;;21.30;11.95;;;6.50;99.90;;;;;;5031401;28;20144;-84
2022/01/11 07:24:56;;;;;;;20.45;11.98;;;6.50;99.90;;;;;;5031725;28;20017;-85
2022/01/11 07:27:22;;;;;;;29.77;16.50;;;6.50;99.90;;;;;;5031952;28;20041;-90
2022/01/11 07:29:49;;;;;;;34.40;18.02;;;6.50;99.90;;;;;;5032392;28;20105;-90
2022/01/11 07:32:15;;;;;;;31.35;16.13;;;6.40;99.90;;;;;;5030407;28;20139;-88
2022/01/11 07:34:40;;;;;;;28.48;14.77;;;6.40;99.90;;;;;;5029737;28;20034;-90
2022/01/11 07:37:06;;;;;;;25.15;13.70;;;6.40;99.90;;;;;;5030750;28;20586;-87
2022/01/11 07:39:32;;;;;;;22.05;13.07;;;6.40;99.90;;;;;;5031494;28;20013;-87
2022/01/11 07:41:58;;;;;;;22.23;11.73;;;6.40;99.90;;;;;;5031473;28;20037;-88
2022/01/11 07:44:25;;;;;;;20.38;11.80;;;6.40;99.90;;;;;;5031699;28;20385;-88
2022/01/11 07:46:52;;;;;;;18.75;10.73;;;6.40;99.90;;;;;;5031352;28;20176;-87
2022/01/11 07:49:19;;;;;;;20.48;10.65;;;6.40;99.90;;;;;;5031249;28;20101;-89
2022/01/11 07:51:46;;;;;;;21.20;11.88;;;6.40;99.90;;;;;;5030772;28;20041;-90
2022/01/11 07:54:12;;;;;;;23.48;13.20;;;6.40;99.90;;;;;;5029764;28;20029;-89
2022/01/11 07:56:38;;;;;;;30.88;14.43;;;6.40;99.90;;;;;;5030948;28;20526;-89
2022/01/11 07:59:03;;;;;;;34.60;16.52;;;6.30;99.90;;;;;;5029746;28;20048;-89
2022/01/11 08:01:29;;;;;;;24.77;12.70;;;6.30;99.90;;;;;;5031410;28;20021;-88
2022/01/11 08:03:55;;;;;;;20.65;11.10;;;6.30;99.90;;;;;;5029563;28;20025;-87
2022/01/11 08:06:21;;;;;;;20.45;10.68;;;6.30;99.90;;;;;;5030561;28;20060;-87
2022/01/11 08:08:47;;;;;;;18.10;9.80;;;6.40;99.90;;;;;;5030937;28;20032;-87
2022/01/11 08:11:13;;;;;;;18.73;9.82;;;6.40;99.90;;;;;;5031015;28;20378;-89
2022/01/11 08:13:39;;;;;;;15.55;8.77;;;6.40;99.90;;;;;;5030611;28;20029;-89
2022/01/11 08:16:05;;;;;;;16.15;9.55;;;6.50;99.90;;;;;;5030502;28;20088;-89
2022/01/11 08:18:31;;;;;;;20.20;10.20;;;6.50;99.90;;;;;;5030511;28;20505;-88
2022/01/11 08:20:57;;;;;;;19.63;11.27;;;6.60;99.90;;;;;;5030382;28;20044;-90
2022/01/11 08:23:22;;;;;;;17.05;10.38;;;6.60;99.90;;;;;;5029356;28;20040;-90
2022/01/11 08:25:48;;;;;;;19.15;10.57;;;6.70;99.90;;;;;;5030749;28;20108;-87
2022/01/11 08:28:14;;;;;;;20.98;10.20;;;6.80;99.90;;;;;;5029435;28;20034;-87
2022/01/11 08:30:40;;;;;;;16.63;9.70;;;6.80;99.90;;;;;;5029001;28;20022;-88
2022/01/11 08:33:06;;;;;;;22.73;9.95;;;6.90;99.90;;;;;;5028878;28;20219;-87
2022/01/11 08:35:33;;;;;;;16.17;9.93;;;6.90;99.90;;;;;;5028713;28;20022;-87
2022/01/11 08:37:59;;;;;;;19.10;10.00;;;6.90;99.90;;;;;;5028984;28;20053;-87
2022/01/11 08:40:25;;;;;;;21.67;10.55;;;7.00;99.90;;;;;;5028674;28;20521;-87
2022/01/11 08:42:52;;;;;;;23.15;11.27;;;7.00;99.90;;;;;;5030487;28;20555;-87
2022/01/11 08:45:19;;;;;;;29.10;15.15;;;7.00;99.90;;;;;;5030214;28;20664;-87
2022/01/11 08:47:45;;;;;;;37.72;19.63;;;7.00;99.90;;;;;;5030445;28;20021;-87
2022/01/11 08:50:12;;;;;;;33.15;16.73;;;7.00;99.90;;;;;;5028598;28;20030;-87
2022/01/11 08:52:40;;;;;;;27.08;15.32;;;7.00;99.90;;;;;;5028756;28;20038;-87
2022/01/11 08:55:07;;;;;;;22.40;14.02;;;7.00;99.90;;;;;;5028698;28;20613;-87
2022/01/11 08:57:34;;;;;;;19.92;10.65;;;7.10;99.90;;;;;;5029851;28;20022;-87
2022/01/11 09:00:02;;;;;;;15.98;9.80;;;7.10;99.90;;;;;;5028543;28;20026;-87
2022/01/11 09:02:29;;;;;;;17.75;9.40;;;7.20;99.90;;;;;;5028515;28;20032;-87
2022/01/11 09:04:55;;;;;;;17.85;8.43;;;7.20;99.90;;;;;;5030359;28;20017;-89
2022/01/11 09:07:21;;;;;;;17.92;9.20;;;7.30;99.90;;;;;;5028260;28;20394;-87
2022/01/11 09:09:48;;;;;;;21.00;8.63;;;7.30;99.90;;;;;;5028277;28;20053;-87
2022/01/11 09:12:15;;;;;;;15.13;7.70;;;7.40;99.90;;;;;;5028500;28;20030;-89
2022/01/11 09:14:42;;;;;;;19.77;8.13;;;7.40;99.90;;;;;;5028324;28;20025;-87
2022/01/11 09:17:08;;;;;;;13.23;6.97;;;7.50;99.90;;;;;;5028597;28;20036;-87
2022/01/11 09:19:34;;;;;;;13.30;6.93;;;7.50;99.90;;;;;;5029797;28;20516;-87
2022/01/11 09:22:01;;;;;;;21.83;8.30;;;7.60;99.90;;;;;;5027892;28;20070;-88
2022/01/11 09:24:29;;;;;;;18.33;6.90;;;7.60;99.90;;;;;;5028448;28;20405;-87
2022/01/11 09:26:58;;;;;;;16.52;6.45;;;7.60;99.90;;;;;;5028332;28;20094;-87
2022/01/11 09:29:25;;;;;;;17.40;6.45;;;7.70;99.90;;;;;;5029572;28;20052;-88
2022/01/11 09:31:51;;;;;;;16.10;6.20;;;7.70;99.90;;;;;;5028245;28;20061;-88
2022/01/11 09:34:17;;;;;;;10.98;4.80;;;7.70;99.90;;;;;;5027888;28;20059;-87
2022/01/11 09:36:43;;;;;;;11.10;5.57;;;7.70;99.90;;;;;;5029243;28;20029;-87
2022/01/11 09:39:09;;;;;;;14.35;6.40;;;7.80;99.90;;;;;;5027965;28;20088;-87
2022/01/11 09:41:35;;;;;;;13.55;5.90;;;7.80;99.90;;;;;;5028099;28;20022;-87
2022/01/11 09:44:02;;;;;;;13.95;5.85;;;7.80;99.90;;;;;;5029302;28;20032;-87
2022/01/11 09:46:28;;;;;;;9.93;4.85;;;7.90;99.90;;;;;;5028155;28;20029;-87
2022/01/11 09:48:54;;;;;;;12.57;6.03;;;7.90;99.90;;;;;;5028076;28;20032;-87
2022/01/11 09:51:21;;;;;;;12.07;4.88;;;8.10;99.90;;;;;;5028278;28;20100;-87
2022/01/11 09:53:46;;;;;;;11.98;4.30;;;8.10;99.90;;;;;;5032179;28;20112;-87
2022/01/11 09:56:13;;;;;;;9.85;4.03;;;8.00;99.90;;;;;;5033069;28;20105;-87
2022/01/11 09:58:41;;;;;;;8.43;4.88;;;8.10;99.90;;;;;;5032988;28;20029;-87
2022/01/11 10:01:07;;;;;;;11.40;4.88;;;8.20;99.90;;;;;;5033100;28;20075;-87
2022/01/11 10:03:59;;;;;;;12.65;5.07;;;8.20;99.90;;;;;;5031759;28;20026;-87
2022/01/11 10:06:25;;;;;;;12.13;4.72;;;8.20;99.90;;;;;;5031509;28;20032;-87
2022/01/11 10:09:11;;;;;;;11.15;3.83;;;8.20;99.90;;;;;;5032845;28;20075;-87
2022/01/11 10:11:40;;;;;;;11.18;3.97;;;8.20;99.90;;;;;;5031742;28;20746;-90
2022/01/11 10:14:26;;;;;;;9.25;4.35;;;8.20;99.90;;;;;;5031597;28;20029;-87
2022/01/11 10:17:04;;;;;;;11.63;4.53;;;8.30;99.90;;;;;;5032769;28;20022;-87
2022/01/11 10:19:31;;;;;;;11.88;3.78;;;8.30;99.90;;;;;;5032691;28;20025;-87
2022/01/11 10:21:56;;;;;;;10.05;3.95;;;8.40;99.90;;;;;;5030962;28;20609;-87
2022/01/11 10:24:32;;;;;;;12.48;3.80;;;8.30;99.90;;;;;;5031374;28;20029;-87
2022/01/11 10:27:03;;;;;;;12.20;3.95;;;8.40;99.90;;;;;;5031380;28;20200;-87
2022/01/11 10:29:40;;;;;;;7.35;3.42;;;8.50;99.90;;;;;;5031614;28;20104;-87
2022/01/11 10:32:20;;;;;;;5.80;3.35;;;8.40;99.90;;;;;;5030924;28;20449;-88
2022/01/11 10:34:49;;;;;;;6.95;3.65;;;8.40;99.90;;;;;;5032637;28;20025;-87
2022/01/11 10:37:26;;;;;;;7.60;3.40;;;8.50;99.90;;;;;;5031700;28;20075;-88
2022/01/11 10:40:01;;;;;;;10.50;3.80;;;8.60;99.90;;;;;;5031094;28;20108;-87
2022/01/11 10:42:30;;;;;;;9.98;4.50;;;8.60;99.90;;;;;;5031094;28;20260;-88
2022/01/11 10:45:01;;;;;;;39.38;13.27;;;8.60;99.90;;;;;;5031175;28;20178;-87
2022/01/11 10:47:36;;;;;;;20.83;6.30;;;8.60;99.90;;;;;;5032388;28;20025;-87
2022/01/11 10:50:08;;;;;;;42.95;13.50;;;8.70;99.90;;;;;;5030635;28;20025;-87
2022/01/11 10:52:37;;;;;;;48.60;15.48;;;8.70;99.90;;;;;;5032159;28;20037;-87
2022/01/11 10:55:05;;;;;;;25.58;10.20;;;8.80;99.90;;;;;;5032241;28;20017;-88
2022/01/11 10:57:37;;;;;;;15.00;6.13;;;9.00;99.90;;;;;;5030937;28;20405;-87
2022/01/11 11:00:11;;;;;;;9.63;3.92;;;9.00;99.90;;;;;;5030825;28;20029;-88
2022/01/11 11:02:38;;;;;;;;;;;9.00;99.90;;;;;;5030377;28;20034;-88
2022/01/11 11:05:29;;;;;;;12.25;4.60;;;9.10;99.90;;;;;;5046378;28;19905;-88
2022/01/11 11:08:01;;;;;;;8.95;3.80;;;9.20;99.90;;;;;;5030720;28;20026;-88
2022/01/11 11:10:34;;;;;;;47.30;16.88;;;9.20;99.90;;;;;;5030739;28;20032;-88
2022/01/11 11:13:00;;;;;;;28.25;11.43;;;9.30;99.90;;;;;;5030830;28;20034;-88
2022/01/11 11:15:32;;;;;;;18.08;8.77;;;9.30;99.90;;;;;;5030390;28;20021;-88
2022/01/11 11:17:58;;;;;;;24.63;10.20;;;9.40;99.90;;;;;;5032045;28;20033;-88
2022/01/11 11:20:24;;;;;;;8.63;3.72;;;9.50;99.90;;;;;;5031334;28;20026;-88
2022/01/11 11:22:51;;;;;;;18.10;6.70;;;9.60;99.90;;;;;;5031630;28;20033;-88
2022/01/11 11:25:17;;;;;;;23.88;10.20;;;9.60;99.90;;;;;;5031467;28;20049;-87
2022/01/11 11:27:43;;;;;;;27.13;8.00;;;9.60;99.90;;;;;;5030250;28;20067;-87
2022/01/11 11:30:10;;;;;;;40.50;10.73;;;9.70;99.90;;;;;;5034418;28;20037;-86
2022/01/11 11:32:36;;;;;;;15.68;6.25;;;9.80;99.90;;;;;;5031252;28;20557;-87
2022/01/11 11:35:02;;;;;;;29.15;9.00;;;9.80;99.90;;;;;;5031560;28;20013;-87
2022/01/11 11:37:34;;;;;;;69.63;18.95;;;9.90;99.90;;;;;;5032430;28;20034;-87
2022/01/11 11:40:06;;;;;;;46.30;14.98;;;9.80;99.90;;;;;;5036298;28;20024;-86
2022/01/11 11:42:32;;;;;;;32.95;10.88;;;9.80;99.90;;;;;;5031057;28;20079;-87
2022/01/11 11:44:59;;;;;;;34.50;11.20;;;9.80;99.90;;;;;;5029831;28;20025;-87
2022/01/11 11:47:35;;;;;;;19.55;6.38;;;10.00;99.90;;;;;;5031396;28;20510;-87
2022/01/11 11:50:05;;;;;;;29.25;9.25;;;10.00;99.90;;;;;;5030806;28;20434;-87
2022/01/11 11:52:32;;;;;;;20.98;7.60;;;10.10;99.90;;;;;;5031134;28;20068;-89
2022/01/11 11:54:59;;;;;;;16.40;5.82;;;10.10;99.90;;;;;;5029894;28;20120;-86
2022/01/11 11:57:28;;;;;;;32.42;10.80;;;10.10;99.90;;;;;;5029792;28;20564;-86
2022/01/11 11:59:59;;;;;;;15.55;4.97;;;10.20;99.90;;;;;;5030940;28;20025;-87
2022/01/11 12:02:31;;;;;;;38.53;14.50;;;10.20;99.90;;;;;;5029491;28;20070;-89
2022/01/11 12:04:57;;;;;;;14.48;6.35;;;10.10;99.90;;;;;;5030258;28;20033;-89
2022/01/11 12:07:31;;;;;;;10.10;3.38;;;10.10;99.90;;;;;;5029486;28;20035;-86
2022/01/11 12:09:57;;;;;;;10.82;5.55;;;10.20;99.90;;;;;;5029419;28;20025;-89
2022/01/11 12:12:44;;;;;;;8.63;5.15;;;10.20;99.90;;;;;;5030877;28;20095;-89
2022/01/11 12:15:39;;;;;;;9.77;4.95;;;10.30;99.90;;;;;;5030480;28;20026;-89
2022/01/11 12:18:07;;;;;;;6.82;4.38;;;10.20;99.90;;;;;;5020659;28;20091;-86
2022/01/11 12:20:39;;;;;;;3.63;2.28;;;10.20;99.90;;;;;;5030329;28;20022;-87
2022/01/11 12:23:05;;;;;;;8.65;3.10;;;10.30;99.90;;;;;;5029067;28;20037;-87
2022/01/11 12:25:33;;;;;;;7.63;2.92;;;10.30;99.90;;;;;;5028951;28;20028;-87
2022/01/11 12:28:06;;;;;;;6.07;2.40;;;10.40;99.90;;;;;;5029983;28;20029;-87
2022/01/11 12:30:32;;;;;;;5.18;2.70;;;10.50;99.90;;;;;;5029229;28;20022;-87
2022/01/11 12:33:21;;;;;;;6.30;3.00;;;10.50;99.90;;;;;;5028796;28;20053;-87
2022/01/11 12:36:04;;;;;;;5.70;2.25;;;10.50;99.90;;;;;;5030232;28;20045;-87
2022/01/11 12:38:33;;;;;;;4.47;2.00;;;10.50;99.90;;;;;;5030336;28;20029;-87
2022/01/11 12:41:37;;;;;;;4.68;2.28;;;10.50;99.90;;;;;;5028880;28;20071;-87
2022/01/11 12:44:33;;;;;;;5.47;2.40;;;10.60;99.90;;;;;;5030069;28;20028;-90
2022/01/11 12:47:08;;;;;;;6.70;2.85;;;10.60;99.90;;;;;;5030008;28;20030;-89
2022/01/11 12:49:36;;;;;;;10.52;2.88;;;10.60;99.90;;;;;;5030200;28;20024;-89